createdAt,value
2022-10-05T00:01:38.610Z,99178.00
2022-10-05T00:04:15.693Z,99151.00
2022-10-05T00:06:46.670Z,99138.00
2022-10-05T00:09:20.908Z,99145.00
2022-10-05T00:11:51.541Z,99142.00
2022-10-05T00:14:23.649Z,99133.00
2022-10-05T00:16:56.278Z,99125.00
2022-10-05T00:19:30.447Z,99111.00
2022-10-05T00:22:01.805Z,99116.00
2022-10-05T00:24:32.592Z,99105.00
2022-10-05T00:27:03.677Z,99104.00
2022-10-05T00:29:33.586Z,99081.00
2022-10-05T00:32:06.239Z,99073.00
2022-10-05T00:34:36.377Z,99067.00
2022-10-05T00:37:06.805Z,99079.00
2022-10-05T00:39:37.687Z,99071.00
2022-10-05T00:42:17.506Z,99074.00
2022-10-05T00:44:51.869Z,99070.00
2022-10-05T00:47:34.759Z,99071.00
2022-10-05T00:50:24.189Z,99071.00
2022-10-05T00:52:58.880Z,99076.00
2022-10-05T00:55:38.318Z,99074.00
2022-10-05T00:58:15.555Z,99076.00
2022-10-05T01:00:52.877Z,99066.00
2022-10-05T01:03:28.365Z,99069.00
2022-10-05T01:06:05.192Z,99066.00
2022-10-05T01:08:43.744Z,99054.00
2022-10-05T01:11:18.082Z,99048.00
2022-10-05T01:13:53.835Z,99041.00
2022-10-05T01:16:29.716Z,99031.00
2022-10-05T01:19:12.846Z,99028.00
2022-10-05T01:21:47.814Z,99017.00
2022-10-05T01:24:41.457Z,99019.00
2022-10-05T01:27:39.310Z,99019.00
2022-10-05T01:30:12.016Z,99015.00
2022-10-05T01:32:45.586Z,99018.00
2022-10-05T01:35:26.377Z,99018.00
2022-10-05T01:38:03.137Z,99012.00
2022-10-05T01:40:37.763Z,99008.00
2022-10-05T01:43:14.597Z,99018.00
2022-10-05T01:45:52.655Z,99016.00
2022-10-05T01:48:28.146Z,99013.00
2022-10-05T01:51:05.101Z,99018.00
2022-10-05T01:53:57.149Z,99039.00
2022-10-05T01:56:33.505Z,99024.00
2022-10-05T01:59:16.796Z,99031.00
2022-10-05T02:01:52.822Z,99038.00
2022-10-05T02:04:56.957Z,99035.00
2022-10-05T02:07:24.904Z,99025.00
2022-10-05T02:09:58.665Z,99033.00
2022-10-05T02:12:31.639Z,99028.00
2022-10-05T02:15:12.664Z,99036.00
2022-10-05T02:17:46.516Z,99031.00
2022-10-05T02:20:21.037Z,99047.00
2022-10-05T02:22:52.917Z,99038.00
2022-10-05T02:25:25.130Z,99051.00
2022-10-05T02:27:57.057Z,99051.00
2022-10-05T02:30:31.087Z,99039.00
2022-10-05T02:33:04.633Z,99042.00
2022-10-05T02:35:35.108Z,99051.00
2022-10-05T02:38:13.702Z,99042.00
2022-10-05T02:40:50.354Z,99040.00
2022-10-05T02:43:25.760Z,99036.00
2022-10-05T02:46:02.600Z,99030.00
2022-10-05T02:48:41.782Z,99022.00
2022-10-05T02:51:17.041Z,99024.00
2022-10-05T02:53:55.352Z,99016.00
2022-10-05T02:56:30.768Z,99012.00
2022-10-05T02:59:05.328Z,99018.00
2022-10-05T03:01:42.180Z,99005.00
2022-10-05T03:04:21.285Z,99003.00
2022-10-05T03:06:53.592Z,99006.00
2022-10-05T03:09:25.665Z,99005.00
2022-10-05T03:12:03.869Z,99012.00
2022-10-05T03:14:39.744Z,99007.00
2022-10-05T03:17:17.373Z,99012.00
2022-10-05T03:19:58.790Z,99007.00
2022-10-05T03:22:35.824Z,99021.00
2022-10-05T03:25:37.899Z,99018.00
2022-10-05T03:28:12.139Z,98997.00
2022-10-05T03:30:48.403Z,98998.00
2022-10-05T03:33:26.522Z,99003.00
2022-10-05T03:36:02.370Z,99009.00
2022-10-05T03:38:38.130Z,99014.00
2022-10-05T03:41:15.520Z,99024.00
2022-10-05T03:44:23.771Z,99007.00
2022-10-05T03:47:04.175Z,99012.00
2022-10-05T03:49:46.936Z,99001.00
2022-10-05T03:52:22.250Z,98996.00
2022-10-05T03:54:57.682Z,98997.00
2022-10-05T03:57:29.351Z,98994.00
2022-10-05T04:00:04.484Z,98977.00
2022-10-05T04:02:45.918Z,98992.00
2022-10-05T04:05:22.184Z,98960.00
2022-10-05T04:07:56.861Z,98965.00
2022-10-05T04:10:29.493Z,98966.00
2022-10-05T04:13:04.469Z,98958.00
2022-10-05T04:15:38.148Z,98957.00
2022-10-05T04:18:13.303Z,98944.00
2022-10-05T04:20:48.154Z,98948.00
2022-10-05T04:23:22.428Z,98936.00
2022-10-05T04:25:55.568Z,98938.00
2022-10-05T04:28:32.410Z,98933.00
2022-10-05T04:31:05.831Z,98931.00
2022-10-05T04:33:36.347Z,98942.00
2022-10-05T04:36:16.324Z,98948.00
2022-10-05T04:39:06.293Z,98966.00
2022-10-05T04:41:52.044Z,98968.00
2022-10-05T04:44:59.242Z,98967.00
2022-10-05T04:47:51.582Z,98968.00
2022-10-05T04:50:29.347Z,98975.00
2022-10-05T04:53:16.258Z,98981.00
2022-10-05T04:55:52.120Z,98977.00
2022-10-05T04:58:30.620Z,98978.00
2022-10-05T05:01:11.506Z,98968.00
2022-10-05T05:04:04.180Z,98981.00
2022-10-05T05:06:39.288Z,98990.00
2022-10-05T05:09:36.257Z,98991.00
2022-10-05T05:12:22.503Z,98992.00
2022-10-05T05:15:26.193Z,99003.00
2022-10-05T05:18:07.773Z,99005.00
2022-10-05T05:20:48.310Z,98993.00
2022-10-05T05:23:24.090Z,98986.00
2022-10-05T05:26:02.723Z,98993.00
2022-10-05T05:28:38.987Z,98983.00
2022-10-05T05:31:14.018Z,98968.00
2022-10-05T05:33:50.614Z,98953.00
2022-10-05T05:36:33.173Z,98954.00
2022-10-05T05:39:20.513Z,98956.00
2022-10-05T05:42:02.145Z,98956.00
2022-10-05T05:44:39.056Z,98949.00
2022-10-05T05:47:18.279Z,98945.00
2022-10-05T05:49:57.643Z,98953.00
2022-10-05T05:52:31.894Z,98937.00
2022-10-05T05:55:04.106Z,98939.00
2022-10-05T05:57:41.410Z,98925.00
2022-10-05T06:00:24.146Z,98937.00
2022-10-05T06:03:04.138Z,98942.00
2022-10-05T06:05:37.263Z,98939.00
2022-10-05T06:08:14.369Z,98944.00
2022-10-05T06:10:50.186Z,98935.00
2022-10-05T06:13:26.304Z,98943.00
2022-10-05T06:15:59.471Z,98940.00
2022-10-05T06:18:29.642Z,98939.00
2022-10-05T06:21:03.561Z,98949.00
2022-10-05T06:23:43.804Z,98940.00
2022-10-05T06:26:32.384Z,98948.00
2022-10-05T06:29:08.187Z,98940.00
2022-10-05T06:31:57.930Z,98946.00
2022-10-05T06:34:45.648Z,98950.00
2022-10-05T06:37:23.608Z,98954.00
2022-10-05T06:40:01.284Z,98957.00
2022-10-05T06:42:44.956Z,98966.00
2022-10-05T06:45:23.919Z,98968.00
2022-10-05T06:48:25.105Z,98959.00
2022-10-05T06:51:30.182Z,98947.00
2022-10-05T06:54:28.571Z,98961.00
2022-10-05T06:57:05.318Z,98969.00
2022-10-05T06:59:40.938Z,98966.00
2022-10-05T07:02:19.564Z,98968.00
2022-10-05T07:05:03.937Z,98962.00
2022-10-05T07:07:37.430Z,98964.00
2022-10-05T07:10:20.462Z,98979.00
2022-10-05T07:13:05.746Z,98991.00
2022-10-05T07:15:44.419Z,98996.00
2022-10-05T07:18:36.884Z,99002.00
2022-10-05T07:21:14.379Z,99010.00
2022-10-05T07:23:51.366Z,99012.00
2022-10-05T07:26:25.420Z,99027.00
2022-10-05T07:29:10.788Z,99021.00
2022-10-05T07:31:49.348Z,99022.00
2022-10-05T07:34:28.611Z,99028.00
2022-10-05T07:37:16.247Z,99026.00
2022-10-05T07:40:05.781Z,99021.00
2022-10-05T07:42:52.312Z,99025.00
2022-10-05T07:45:31.428Z,99027.00
2022-10-05T07:48:08.908Z,99013.00
2022-10-05T07:50:45.970Z,99017.00
2022-10-05T07:53:22.739Z,99014.00
2022-10-05T07:55:55.196Z,99019.00
2022-10-05T07:58:30.532Z,99006.00
2022-10-05T08:01:11.400Z,99007.00
2022-10-05T08:03:52.365Z,99025.00
2022-10-05T08:06:37.340Z,99029.00
2022-10-05T08:09:12.243Z,99027.00
2022-10-05T08:11:50.525Z,99030.00
2022-10-05T08:14:27.293Z,99025.00
2022-10-05T08:17:00.961Z,99031.00
2022-10-05T08:19:37.727Z,99033.00
2022-10-05T08:22:12.974Z,99031.00
2022-10-05T08:24:47.230Z,99034.00
2022-10-05T08:27:20.354Z,99042.00
2022-10-05T08:29:55.378Z,99027.00
2022-10-05T08:32:27.841Z,99023.00
2022-10-05T08:35:02.918Z,99020.00
2022-10-05T08:37:37.696Z,99024.00
2022-10-05T08:40:27.619Z,99011.00
2022-10-05T08:43:09.047Z,99027.00
2022-10-05T08:46:00.199Z,99029.00
2022-10-05T08:48:42.379Z,99036.00
2022-10-05T08:51:29.734Z,99040.00
2022-10-05T08:54:18.695Z,99032.00
2022-10-05T08:56:56.121Z,99037.00
2022-10-05T08:59:42.511Z,99033.00
2022-10-05T09:02:21.496Z,99044.00
2022-10-05T09:05:19.533Z,99047.00
2022-10-05T09:08:15.030Z,99050.00
2022-10-05T09:11:01.458Z,99053.00
2022-10-05T09:13:51.276Z,99044.00
2022-10-05T09:16:37.470Z,99054.00
2022-10-05T09:19:32.804Z,99040.00
2022-10-05T09:22:09.350Z,99048.00
2022-10-05T09:24:54.628Z,99041.00
2022-10-05T09:27:37.049Z,99043.00
2022-10-05T09:30:27.032Z,99048.00
2022-10-05T09:33:23.745Z,99048.00
2022-10-05T09:36:25.443Z,99042.00
2022-10-05T09:39:26.532Z,99039.00
2022-10-05T09:42:19.454Z,99035.00
2022-10-05T09:45:20.378Z,99037.00
2022-10-05T09:48:07.390Z,99036.00
2022-10-05T09:50:56.444Z,99028.00
2022-10-05T09:53:40.830Z,99034.00
2022-10-05T09:56:22.103Z,99028.00
2022-10-05T09:59:36.053Z,99033.00
2022-10-05T10:02:24.940Z,99032.00
2022-10-05T10:05:13.566Z,99031.00
2022-10-05T10:07:59.030Z,99026.00
2022-10-05T10:10:52.935Z,99027.00
2022-10-05T10:13:53.626Z,99035.00
2022-10-05T10:16:40.987Z,99036.00
2022-10-05T10:19:33.332Z,99033.00
2022-10-05T10:22:39.638Z,99031.00
2022-10-05T10:25:24.249Z,99031.00
2022-10-05T10:28:10.935Z,99033.00
2022-10-05T10:30:53.685Z,99032.00
2022-10-05T10:33:45.546Z,99021.00
2022-10-05T10:36:21.340Z,99025.00
2022-10-05T10:38:58.595Z,99023.00
2022-10-05T10:41:48.244Z,99010.00
2022-10-05T10:44:37.147Z,99022.00
2022-10-05T10:47:22.549Z,99025.00
2022-10-05T10:50:07.868Z,99024.00
2022-10-05T10:52:53.934Z,99021.00
2022-10-05T10:55:37.892Z,99007.00
2022-10-05T10:58:36.254Z,99026.00
2022-10-05T11:01:14.815Z,99010.00
2022-10-05T11:04:05.339Z,99004.00
2022-10-05T11:06:48.454Z,99003.00
2022-10-05T11:09:27.885Z,99005.00
2022-10-05T11:12:52.118Z,98999.00
2022-10-05T11:15:38.196Z,99000.00
2022-10-05T11:18:20.544Z,99000.00
2022-10-05T11:21:03.244Z,98980.00
2022-10-05T11:23:53.310Z,98972.00
2022-10-05T11:26:40.690Z,98970.00
2022-10-05T11:29:49.328Z,98979.00
2022-10-05T11:32:35.094Z,98959.00
2022-10-05T11:35:27.381Z,98961.00
2022-10-05T11:38:31.137Z,98943.00
2022-10-05T11:41:33.149Z,98949.00
2022-10-05T11:44:25.124Z,98944.00
2022-10-05T11:46:58.526Z,98956.00
2022-10-05T11:49:37.182Z,98964.00
2022-10-05T11:52:16.826Z,98953.00
2022-10-05T11:55:12.006Z,98953.00
2022-10-05T11:57:51.808Z,98968.00
2022-10-05T12:00:23.929Z,98952.00
2022-10-05T12:03:23.931Z,98961.00
2022-10-05T12:06:05.390Z,98961.00
2022-10-05T12:08:43.082Z,98959.00
2022-10-05T12:11:29.081Z,98955.00
2022-10-05T12:14:06.356Z,98961.00
2022-10-05T12:16:39.763Z,98961.00
2022-10-05T12:19:15.480Z,98966.00
2022-10-05T12:21:47.895Z,98966.00
2022-10-05T12:24:26.538Z,98958.00
2022-10-05T12:26:58.596Z,98964.00
2022-10-05T12:29:36.341Z,98958.00
2022-10-05T12:32:07.853Z,98946.00
2022-10-05T12:34:48.753Z,98948.00
2022-10-05T12:37:39.429Z,98931.00
2022-10-05T12:40:19.762Z,98931.00
2022-10-05T12:42:56.323Z,98924.00
2022-10-05T12:45:37.996Z,98925.00
2022-10-05T12:48:21.585Z,98924.00
2022-10-05T12:50:52.987Z,98907.00
2022-10-05T12:53:41.084Z,98914.00
2022-10-05T12:56:14.558Z,98921.00
2022-10-05T12:58:51.559Z,98919.00
2022-10-05T13:01:30.933Z,98914.00
2022-10-05T13:04:09.331Z,98924.00
2022-10-05T13:06:42.710Z,98922.00
2022-10-05T13:09:16.652Z,98917.00
2022-10-05T13:11:49.596Z,98913.00
2022-10-05T13:14:26.998Z,98917.00
2022-10-05T13:17:03.889Z,98909.00
2022-10-05T13:19:39.412Z,98908.00
2022-10-05T13:22:27.655Z,98923.00
2022-10-05T13:25:05.193Z,98920.00
2022-10-05T13:27:38.540Z,98930.00
2022-10-05T13:30:15.956Z,98925.00
2022-10-05T13:32:50.856Z,98937.00
2022-10-05T13:35:41.609Z,98938.00
2022-10-05T13:38:22.857Z,98928.00
2022-10-05T13:40:59.393Z,98934.00
2022-10-05T13:43:33.588Z,98925.00
2022-10-05T13:46:09.766Z,98938.00
2022-10-05T13:48:58.078Z,98933.00
2022-10-05T13:51:32.539Z,98934.00
2022-10-05T13:54:07.702Z,98933.00
2022-10-05T13:56:42.033Z,98931.00
2022-10-05T13:59:20.932Z,98920.00
2022-10-05T14:01:55.597Z,98911.00
2022-10-05T14:04:31.281Z,98913.00
2022-10-05T14:07:18.784Z,98913.00
2022-10-05T14:09:51.754Z,98929.00
2022-10-05T14:12:25.669Z,98920.00
2022-10-05T14:14:56.943Z,98918.00
2022-10-05T14:17:42.064Z,98931.00
2022-10-05T14:20:31.197Z,98927.00
2022-10-05T14:23:03.528Z,98927.00
2022-10-05T14:25:33.874Z,98930.00
2022-10-05T14:28:07.656Z,98923.00
2022-10-05T14:30:38.136Z,98930.00
2022-10-05T14:33:18.496Z,98925.00
2022-10-05T14:35:53.038Z,98923.00
2022-10-05T14:38:26.489Z,98925.00
2022-10-05T14:41:18.876Z,98920.00
2022-10-05T14:43:54.021Z,98918.00
2022-10-05T14:46:27.943Z,98930.00
2022-10-05T14:49:17.192Z,98925.00
2022-10-05T14:51:50.318Z,98928.00
2022-10-05T14:54:33.315Z,98921.00
2022-10-05T14:57:12.089Z,98932.00
2022-10-05T14:59:53.915Z,98923.00
2022-10-05T15:02:45.160Z,98925.00
2022-10-05T15:05:19.438Z,98923.00
2022-10-05T15:07:52.588Z,98913.00
2022-10-05T15:10:34.259Z,98913.00
2022-10-05T15:13:11.833Z,98907.00
2022-10-05T15:15:46.671Z,98914.00
2022-10-05T15:18:31.003Z,98910.00
2022-10-05T15:21:12.146Z,98904.00
2022-10-05T15:23:48.052Z,98908.00
2022-10-05T15:26:29.921Z,98908.00
2022-10-05T15:29:05.053Z,98910.00
2022-10-05T15:31:40.551Z,98910.00
2022-10-05T15:34:15.498Z,98896.00
2022-10-05T15:36:49.545Z,98904.00
2022-10-05T15:39:28.819Z,98898.00
2022-10-05T15:42:05.208Z,98895.00
2022-10-05T15:44:49.352Z,98899.00
2022-10-05T15:47:24.072Z,98890.00
2022-10-05T15:50:02.087Z,98903.00
2022-10-05T15:52:39.418Z,98896.00
2022-10-05T15:55:49.602Z,98909.00
2022-10-05T15:58:43.462Z,98897.00
2022-10-05T16:01:15.618Z,98900.00
2022-10-05T16:03:52.480Z,98892.00
2022-10-05T16:06:51.459Z,98898.00
2022-10-05T16:09:25.638Z,98904.00
2022-10-05T16:12:17.988Z,98912.00
2022-10-05T16:15:06.669Z,98910.00
2022-10-05T16:17:45.103Z,98910.00
2022-10-05T16:20:27.104Z,98903.00
2022-10-05T16:23:01.351Z,98903.00
2022-10-05T16:25:44.169Z,98911.00
2022-10-05T16:28:26.150Z,98909.00
2022-10-05T16:31:02.301Z,98907.00
2022-10-05T16:33:46.699Z,98905.00
2022-10-05T16:36:22.836Z,98913.00
2022-10-05T16:38:59.237Z,98906.00
2022-10-05T16:41:35.025Z,98908.00
2022-10-05T16:44:13.984Z,98900.00
2022-10-05T16:46:48.641Z,98895.00
2022-10-05T16:49:27.053Z,98907.00
2022-10-05T16:52:00.737Z,98900.00
2022-10-05T16:54:34.433Z,98889.00
2022-10-05T16:57:09.454Z,98893.00
2022-10-05T17:00:19.291Z,98901.00
2022-10-05T17:02:59.807Z,98898.00
2022-10-05T17:05:45.242Z,98882.00
2022-10-05T17:08:52.926Z,98887.00
2022-10-05T17:11:33.666Z,98885.00
2022-10-05T17:14:20.280Z,98876.00
2022-10-05T17:17:02.631Z,98881.00
2022-10-05T17:19:50.218Z,98883.00
2022-10-05T17:22:27.342Z,98870.00
2022-10-05T17:25:03.529Z,98857.00
2022-10-05T17:27:36.735Z,98863.00
2022-10-05T17:30:23.686Z,98859.00
2022-10-05T17:33:04.689Z,98862.00
2022-10-05T17:35:53.642Z,98870.00
2022-10-05T17:38:25.551Z,98864.00
2022-10-05T17:41:12.470Z,98858.00
2022-10-05T17:43:42.574Z,98866.00
2022-10-05T17:46:14.010Z,98848.00
2022-10-05T17:49:10.264Z,98863.00
2022-10-05T17:52:14.677Z,98862.00
2022-10-05T17:55:30.262Z,98866.00
2022-10-05T17:58:02.785Z,98847.00
2022-10-05T18:01:07.604Z,98842.00
2022-10-05T18:03:41.213Z,98842.00
2022-10-05T18:06:44.926Z,98845.00
2022-10-05T18:09:37.740Z,98828.00
2022-10-05T18:12:45.397Z,98832.00
2022-10-05T18:15:48.935Z,98814.00
2022-10-05T18:18:38.979Z,98820.00
2022-10-05T18:21:20.528Z,98822.00
2022-10-05T18:24:04.230Z,98820.00
2022-10-05T18:26:43.823Z,98820.00
2022-10-05T18:29:39.446Z,98815.00
2022-10-05T18:32:16.786Z,98816.00
2022-10-05T18:34:52.740Z,98806.00
2022-10-05T18:37:31.767Z,98810.00
2022-10-05T18:40:16.188Z,98806.00
2022-10-05T18:42:55.047Z,98805.00
2022-10-05T18:45:27.850Z,98787.00
2022-10-05T18:48:07.771Z,98776.00
2022-10-05T18:50:46.564Z,98796.00
2022-10-05T18:53:25.384Z,98806.00
2022-10-05T18:55:59.382Z,98825.00
2022-10-05T18:58:38.167Z,98829.00
2022-10-05T19:01:32.379Z,98823.00
2022-10-05T19:04:10.796Z,98838.00
2022-10-05T19:06:45.145Z,98839.00
2022-10-05T19:09:24.115Z,98840.00
2022-10-05T19:11:58.527Z,98840.00
2022-10-05T19:14:37.119Z,98838.00
2022-10-05T19:17:25.407Z,98838.00
2022-10-05T19:20:06.769Z,98830.00
2022-10-05T19:22:46.980Z,98829.00
2022-10-05T19:25:28.539Z,98824.00
2022-10-05T19:28:09.975Z,98821.00
2022-10-05T19:30:55.723Z,98816.00
2022-10-05T19:33:35.904Z,98819.00
2022-10-05T19:36:20.494Z,98801.00
2022-10-05T19:39:00.728Z,98824.00
2022-10-05T19:41:39.402Z,98820.00
2022-10-05T19:44:17.038Z,98812.00
2022-10-05T19:47:02.654Z,98818.00
2022-10-05T19:49:46.455Z,98815.00
2022-10-05T19:52:24.254Z,98802.00
2022-10-05T19:55:16.159Z,98799.00
2022-10-05T19:57:50.399Z,98781.00
2022-10-05T20:00:25.869Z,98785.00
2022-10-05T20:03:12.064Z,98800.00
2022-10-05T20:05:42.635Z,98791.00
2022-10-05T20:08:18.154Z,98774.00
2022-10-05T20:10:48.417Z,98766.00
2022-10-05T20:13:22.837Z,98750.00
2022-10-05T20:16:23.507Z,98761.00
2022-10-05T20:19:08.837Z,98747.00
2022-10-05T20:21:47.865Z,98757.00
2022-10-05T20:24:20.289Z,98762.00
2022-10-05T20:27:03.108Z,98762.00
2022-10-05T20:29:35.678Z,98766.00
2022-10-05T20:32:12.315Z,98769.00
2022-10-05T20:34:46.324Z,98786.00
2022-10-05T20:37:17.707Z,98794.00
2022-10-05T20:39:48.249Z,98805.00
2022-10-05T20:42:18.064Z,98792.00
2022-10-05T20:44:52.891Z,98807.00
2022-10-05T20:47:24.232Z,98825.00
2022-10-05T20:49:57.275Z,98793.00
2022-10-05T20:52:27.140Z,98800.00
2022-10-05T20:54:58.327Z,98783.00
2022-10-05T20:57:28.296Z,98797.00
2022-10-05T20:59:58.131Z,98781.00
2022-10-05T21:02:28.794Z,98773.00
2022-10-05T21:05:01.376Z,98786.00
2022-10-05T21:07:31.254Z,98783.00
2022-10-05T21:10:01.233Z,98797.00
2022-10-05T21:12:31.099Z,98814.00
2022-10-05T21:15:04.817Z,98799.00
2022-10-05T21:17:35.269Z,98801.00
2022-10-05T21:20:12.435Z,98850.00
2022-10-05T21:22:42.298Z,98849.00
2022-10-05T21:25:12.517Z,98835.00
2022-10-05T21:27:42.398Z,98855.00
2022-10-05T21:30:13.769Z,98846.00
2022-10-05T21:32:44.744Z,98854.00
2022-10-05T21:35:17.400Z,98850.00
2022-10-05T21:37:47.236Z,98853.00
2022-10-05T21:40:17.283Z,98851.00
2022-10-05T21:42:47.134Z,98856.00
2022-10-05T21:45:17.118Z,98843.00
2022-10-05T21:47:47.032Z,98841.00
2022-10-05T21:50:19.740Z,98844.00
2022-10-05T21:52:50.176Z,98860.00
2022-10-05T21:55:20.492Z,98872.00
2022-10-05T21:57:50.465Z,98858.00
2022-10-05T22:00:20.681Z,98856.00
2022-10-05T22:02:50.488Z,98861.00
2022-10-05T22:05:23.255Z,98875.00
2022-10-05T22:07:54.983Z,98884.00
2022-10-05T22:10:25.129Z,98896.00
2022-10-05T22:12:55.191Z,98909.00
2022-10-05T22:15:25.035Z,98918.00
2022-10-05T22:17:54.858Z,98933.00
2022-10-05T22:20:28.104Z,98944.00
2022-10-05T22:22:57.935Z,98945.00
2022-10-05T22:25:27.798Z,98944.00
2022-10-05T22:27:57.768Z,98961.00
2022-10-05T22:30:27.627Z,98957.00
2022-10-05T22:32:57.500Z,98962.00
2022-10-05T22:35:30.180Z,98958.00
2022-10-05T22:38:00.150Z,98972.00
2022-10-05T22:40:30.026Z,98994.00
2022-10-05T22:43:00.239Z,98987.00
2022-10-05T22:45:32.545Z,98966.00
2022-10-05T22:48:03.906Z,98978.00
2022-10-05T22:50:36.338Z,98991.00
2022-10-05T22:53:06.286Z,98998.00
2022-10-05T22:55:36.092Z,99008.00
2022-10-05T22:58:05.897Z,99017.00
2022-10-05T23:00:56.883Z,98996.00
2022-10-05T23:03:25.858Z,99001.00
2022-10-05T23:06:03.581Z,99002.00
2022-10-05T23:08:33.750Z,99017.00
2022-10-05T23:11:05.111Z,99015.00
2022-10-05T23:13:35.900Z,99012.00
2022-10-05T23:16:09.865Z,99019.00
2022-10-05T23:18:39.900Z,99007.00
2022-10-05T23:21:13.426Z,99014.00
2022-10-05T23:23:47.375Z,99024.00
2022-10-05T23:26:18.136Z,99057.00
2022-10-05T23:28:49.699Z,99033.00
2022-10-05T23:31:21.519Z,99042.00
2022-10-05T23:33:51.435Z,99048.00
2022-10-05T23:36:25.079Z,99044.00
2022-10-05T23:38:55.457Z,99049.00
2022-10-05T23:41:25.579Z,99064.00
2022-10-05T23:43:56.622Z,99058.00
2022-10-05T23:46:27.462Z,99059.00
2022-10-05T23:48:57.405Z,99051.00
2022-10-05T23:51:29.887Z,99069.00
2022-10-05T23:53:59.762Z,99073.00
2022-10-05T23:56:29.613Z,99082.00
2022-10-05T23:58:59.436Z,99080.00
